createdAt,value
2018-09-20T00:02:17.389Z,16.00
2018-09-20T00:04:45.329Z,16.00
2018-09-20T00:07:13.345Z,15.90
2018-09-20T00:09:41.397Z,15.80
2018-09-20T00:12:10.322Z,15.80
2018-09-20T00:14:38.309Z,15.80
2018-09-20T00:17:06.610Z,15.70
2018-09-20T00:19:34.732Z,15.70
2018-09-20T00:22:03.469Z,15.60
2018-09-20T00:24:31.402Z,15.60
2018-09-20T00:27:00.387Z,15.50
2018-09-20T00:29:28.421Z,15.60
2018-09-20T00:31:56.350Z,15.60
2018-09-20T00:34:24.445Z,15.60
2018-09-20T00:36:52.417Z,15.50
2018-09-20T00:39:20.439Z,15.50
2018-09-20T00:41:48.467Z,15.40
2018-09-20T00:44:16.436Z,15.40
2018-09-20T00:46:44.575Z,15.30
2018-09-20T00:49:13.292Z,15.20
2018-09-20T00:51:41.373Z,15.20
2018-09-20T00:54:09.477Z,15.20
2018-09-20T00:56:37.493Z,15.20
2018-09-20T00:59:05.986Z,15.10
2018-09-20T01:01:33.996Z,15.10
2018-09-20T01:04:02.030Z,15.10
2018-09-20T01:06:29.978Z,15.10
2018-09-20T01:08:57.948Z,15.00
2018-09-20T01:11:26.037Z,15.00
2018-09-20T01:13:54.097Z,15.10
2018-09-20T01:16:22.357Z,15.10
2018-09-20T01:18:50.866Z,15.10
2018-09-20T01:21:18.955Z,15.10
2018-09-20T01:23:46.996Z,15.10
2018-09-20T01:26:15.027Z,15.10
2018-09-20T01:28:43.110Z,15.20
2018-09-20T01:31:11.151Z,15.10
2018-09-20T01:33:39.169Z,15.20
2018-09-20T01:36:07.193Z,15.20
2018-09-20T01:38:35.197Z,15.10
2018-09-20T01:41:03.240Z,15.00
2018-09-20T01:43:31.335Z,15.00
2018-09-20T01:45:59.410Z,15.00
2018-09-20T01:48:27.386Z,15.00
2018-09-20T01:50:55.329Z,15.00
2018-09-20T01:53:23.309Z,15.00
2018-09-20T01:55:51.301Z,15.00
2018-09-20T01:58:19.369Z,15.00
2018-09-20T02:00:48.329Z,15.00
2018-09-20T02:03:16.313Z,15.00
2018-09-20T02:05:44.409Z,14.90
2018-09-20T02:08:12.418Z,14.90
2018-09-20T02:10:47.105Z,14.90
2018-09-20T02:13:15.069Z,15.00
2018-09-20T02:15:43.030Z,15.10
2018-09-20T02:18:12.062Z,15.20
2018-09-20T02:20:40.050Z,15.40
2018-09-20T02:23:08.144Z,15.30
2018-09-20T02:25:36.112Z,15.20
2018-09-20T02:28:04.089Z,15.20
2018-09-20T02:30:32.107Z,15.20
2018-09-20T02:33:00.114Z,15.30
2018-09-20T02:35:28.130Z,15.30
2018-09-20T02:37:56.291Z,15.30
2018-09-20T02:40:25.963Z,15.20
2018-09-20T02:42:54.029Z,15.20
2018-09-20T02:45:22.081Z,15.20
2018-09-20T02:47:50.212Z,15.20
2018-09-20T02:50:18.240Z,15.10
2018-09-20T02:52:46.264Z,15.00
2018-09-20T02:55:14.913Z,14.90
2018-09-20T02:57:42.857Z,14.80
2018-09-20T03:00:10.949Z,14.80
2018-09-20T03:02:39.023Z,14.80
2018-09-20T03:05:07.204Z,14.70
2018-09-20T03:07:35.294Z,14.70
2018-09-20T03:10:03.494Z,14.70
2018-09-20T03:12:31.479Z,14.60
2018-09-20T03:14:59.840Z,14.50
2018-09-20T03:17:27.821Z,14.40
2018-09-20T03:19:55.750Z,14.30
2018-09-20T03:22:24.873Z,14.30
2018-09-20T03:24:53.033Z,14.20
2018-09-20T03:27:21.140Z,14.20
2018-09-20T03:29:49.154Z,14.20
2018-09-20T03:32:17.221Z,14.20
2018-09-20T03:34:45.217Z,14.20
2018-09-20T03:37:13.210Z,14.30
2018-09-20T03:39:41.308Z,14.30
2018-09-20T03:42:09.449Z,14.20
2018-09-20T03:44:37.521Z,14.10
2018-09-20T03:47:05.567Z,14.00
2018-09-20T03:49:33.617Z,14.10
2018-09-20T03:52:01.787Z,14.10
2018-09-20T03:54:30.444Z,14.10
2018-09-20T03:56:58.469Z,14.20
2018-09-20T03:59:26.514Z,14.10
2018-09-20T04:01:54.553Z,14.10
2018-09-20T04:04:22.633Z,14.00
2018-09-20T04:06:50.609Z,14.00
2018-09-20T04:09:18.605Z,13.90
2018-09-20T04:11:46.735Z,13.90
2018-09-20T04:14:15.304Z,13.90
2018-09-20T04:16:43.472Z,13.80
2018-09-20T04:19:11.473Z,13.80
2018-09-20T04:21:39.457Z,13.80
2018-09-20T04:24:07.409Z,13.80
2018-09-20T04:26:35.450Z,13.80
2018-09-20T04:29:03.523Z,13.80
2018-09-20T04:31:31.775Z,13.70
2018-09-20T04:34:01.562Z,13.80
2018-09-20T04:36:30.246Z,13.90
2018-09-20T04:38:58.428Z,13.80
2018-09-20T04:41:26.469Z,13.80
2018-09-20T04:43:54.714Z,13.80
2018-09-20T04:46:22.882Z,13.80
2018-09-20T04:48:51.334Z,13.70
2018-09-20T04:51:19.398Z,13.70
2018-09-20T04:53:47.572Z,13.70
2018-09-20T04:56:15.533Z,13.70
2018-09-20T04:58:43.908Z,13.70
2018-09-20T05:01:11.932Z,13.70
2018-09-20T05:03:39.892Z,13.70
2018-09-20T05:06:07.978Z,13.70
2018-09-20T05:08:36.033Z,13.60
2018-09-20T05:11:05.035Z,13.60
2018-09-20T05:13:33.073Z,13.60
2018-09-20T05:16:30.515Z,13.60
2018-09-20T05:18:58.482Z,13.70
2018-09-20T05:21:26.559Z,13.70
2018-09-20T05:23:54.759Z,13.70
2018-09-20T05:26:22.770Z,13.70
2018-09-20T05:28:51.406Z,13.70
2018-09-20T05:31:19.946Z,13.80
2018-09-20T05:33:48.121Z,13.80
2018-09-20T05:36:16.228Z,13.80
2018-09-20T05:38:44.301Z,13.90
2018-09-20T05:41:12.265Z,13.90
2018-09-20T05:43:40.383Z,13.90
2018-09-20T05:46:08.393Z,13.90
2018-09-20T05:48:36.341Z,14.00
2018-09-20T05:51:04.302Z,14.10
2018-09-20T05:53:32.382Z,14.10
2018-09-20T05:56:00.793Z,14.20
2018-09-20T05:58:28.887Z,14.30
2018-09-20T06:00:56.993Z,14.30
2018-09-20T06:03:25.953Z,14.30
2018-09-20T06:05:54.010Z,14.40
2018-09-20T06:08:22.089Z,14.60
2018-09-20T06:10:50.168Z,14.70
2018-09-20T06:13:18.872Z,14.90
2018-09-20T06:15:46.827Z,15.00
2018-09-20T06:18:14.824Z,15.10
2018-09-20T06:20:42.859Z,15.30
2018-09-20T06:23:11.632Z,15.40
2018-09-20T06:25:39.620Z,15.50
2018-09-20T06:28:07.657Z,15.60
2018-09-20T06:30:35.640Z,15.70
2018-09-20T06:33:03.702Z,15.70
2018-09-20T06:35:32.257Z,15.80
2018-09-20T06:38:00.254Z,15.90
2018-09-20T06:40:28.331Z,16.00
2018-09-20T06:42:56.307Z,16.10
2018-09-20T06:45:24.316Z,16.20
2018-09-20T06:47:52.290Z,16.30
2018-09-20T06:50:20.421Z,16.40
2018-09-20T06:52:48.385Z,16.50
2018-09-20T06:55:16.439Z,16.60
2018-09-20T06:57:44.452Z,16.70
2018-09-20T07:00:12.554Z,16.80
2018-09-20T07:02:40.617Z,16.90
2018-09-20T07:05:08.596Z,17.00
2018-09-20T07:07:36.571Z,17.10
2018-09-20T07:10:04.652Z,17.20
2018-09-20T07:12:32.624Z,17.30
2018-09-20T07:15:00.670Z,17.40
2018-09-20T07:17:28.622Z,17.40
2018-09-20T07:19:56.688Z,17.50
2018-09-20T07:22:24.702Z,17.60
2018-09-20T07:24:52.701Z,17.70
2018-09-20T07:27:20.747Z,17.80
2018-09-20T07:29:48.944Z,17.90
2018-09-20T07:32:17.020Z,18.00
2018-09-20T07:34:44.953Z,18.10
2018-09-20T07:37:13.060Z,18.20
2018-09-20T07:39:41.853Z,18.30
2018-09-20T07:42:09.835Z,18.40
2018-09-20T07:44:37.807Z,18.50
2018-09-20T07:47:05.837Z,18.50
2018-09-20T07:49:33.797Z,18.70
2018-09-20T07:52:01.875Z,18.70
2018-09-20T07:54:30.061Z,18.80
2018-09-20T07:56:58.055Z,18.80
2018-09-20T07:59:26.032Z,18.90
2018-09-20T08:01:54.003Z,19.00
2018-09-20T08:04:22.046Z,19.20
2018-09-20T08:06:50.072Z,19.20
2018-09-20T08:09:18.050Z,19.30
2018-09-20T08:11:45.978Z,19.30
2018-09-20T08:14:13.961Z,19.50
2018-09-20T08:16:41.948Z,19.50
2018-09-20T08:19:09.933Z,19.70
2018-09-20T08:21:37.971Z,19.80
2018-09-20T08:24:05.985Z,19.90
2018-09-20T08:26:33.937Z,20.00
2018-09-20T08:29:01.898Z,20.10
2018-09-20T08:31:29.829Z,20.10
2018-09-20T08:33:57.827Z,20.20
2018-09-20T08:36:25.985Z,20.30
2018-09-20T08:38:53.949Z,20.40
2018-09-20T08:41:21.869Z,20.60
2018-09-20T08:43:49.898Z,20.60
2018-09-20T08:46:17.851Z,20.70
2018-09-20T08:48:45.835Z,20.80
2018-09-20T08:51:13.921Z,21.00
2018-09-20T08:53:41.877Z,21.10
2018-09-20T08:56:09.805Z,21.10
2018-09-20T08:58:37.786Z,21.20
2018-09-20T09:01:05.801Z,21.40
2018-09-20T09:03:33.882Z,21.50
2018-09-20T09:06:01.912Z,21.50
2018-09-20T09:08:29.874Z,21.60
2018-09-20T09:10:57.933Z,21.60
2018-09-20T09:13:25.980Z,21.70
2018-09-20T09:15:53.999Z,21.80
2018-09-20T09:18:22.428Z,21.80
2018-09-20T09:20:50.449Z,22.00
2018-09-20T09:23:18.361Z,22.00
2018-09-20T09:25:48.416Z,22.10
2018-09-20T09:28:16.407Z,22.20
2018-09-20T09:30:44.368Z,22.20
2018-09-20T09:33:12.304Z,22.30
2018-09-20T09:35:40.315Z,22.40
2018-09-20T09:38:08.209Z,22.50
2018-09-20T09:40:36.133Z,22.60
2018-09-20T09:43:04.137Z,22.60
2018-09-20T09:45:32.109Z,22.70
2018-09-20T09:48:00.159Z,22.80
2018-09-20T09:50:28.145Z,22.90
2018-09-20T09:52:56.177Z,22.90
2018-09-20T09:55:24.074Z,23.10
2018-09-20T09:57:52.245Z,23.10
2018-09-20T10:00:25.633Z,23.00
2018-09-20T10:02:53.630Z,23.10
2018-09-20T10:05:21.622Z,23.20
2018-09-20T10:07:49.572Z,23.30
2018-09-20T10:10:17.484Z,23.30
2018-09-20T10:12:45.470Z,23.40
2018-09-20T10:15:13.446Z,23.40
2018-09-20T10:17:41.505Z,23.50
2018-09-20T10:20:09.457Z,23.40
2018-09-20T10:22:37.384Z,23.50
2018-09-20T10:25:05.361Z,23.60
2018-09-20T10:27:33.320Z,23.60
2018-09-20T10:30:01.475Z,23.90
2018-09-20T10:32:29.845Z,24.00
2018-09-20T10:34:57.748Z,24.10
2018-09-20T10:37:25.721Z,24.20
2018-09-20T10:39:54.665Z,24.20
2018-09-20T10:42:23.329Z,24.20
2018-09-20T10:44:51.293Z,24.30
2018-09-20T10:47:19.368Z,24.30
2018-09-20T10:49:47.506Z,24.40
2018-09-20T10:52:15.479Z,24.50
2018-09-20T10:54:44.070Z,24.50
2018-09-20T10:57:12.103Z,24.60
2018-09-20T10:59:40.138Z,24.60
2018-09-20T11:02:08.095Z,24.70
2018-09-20T11:04:36.067Z,24.80
2018-09-20T11:07:04.141Z,24.90
2018-09-20T11:09:32.150Z,24.90
2018-09-20T11:12:00.125Z,25.00
2018-09-20T11:14:28.211Z,25.10
2018-09-20T11:16:56.082Z,25.20
2018-09-20T11:19:24.055Z,25.30
2018-09-20T11:21:52.022Z,25.30
2018-09-20T11:24:19.921Z,25.40
2018-09-20T11:26:47.894Z,25.50
2018-09-20T11:29:15.877Z,25.50
2018-09-20T11:31:43.890Z,25.60
2018-09-20T11:34:12.010Z,25.70
2018-09-20T11:36:40.641Z,25.80
2018-09-20T11:39:10.949Z,25.90
2018-09-20T11:41:39.170Z,26.00
2018-09-20T11:44:07.268Z,26.10
2018-09-20T11:46:35.380Z,26.10
2018-09-20T11:49:03.343Z,26.30
2018-09-20T11:51:31.466Z,26.40
2018-09-20T11:53:59.509Z,26.40
2018-09-20T11:56:27.512Z,26.40
2018-09-20T11:58:55.445Z,26.40
2018-09-20T12:01:24.535Z,26.50
2018-09-20T12:03:52.682Z,26.60
2018-09-20T12:06:21.117Z,26.60
2018-09-20T12:08:49.119Z,26.70
2018-09-20T12:11:17.059Z,26.80
2018-09-20T12:13:45.013Z,26.80
2018-09-20T12:18:41.286Z,26.90
2018-09-20T12:21:09.265Z,27.00
2018-09-20T12:23:37.333Z,26.80
2018-09-20T12:26:05.411Z,27.00
2018-09-20T12:28:33.394Z,27.00
2018-09-20T12:31:01.328Z,27.20
2018-09-20T12:33:29.377Z,27.30
2018-09-20T12:35:57.492Z,27.40
2018-09-20T12:38:25.615Z,27.40
2018-09-20T12:40:53.990Z,27.40
2018-09-20T12:43:21.927Z,27.20
2018-09-20T12:45:49.954Z,27.30
2018-09-20T12:48:17.963Z,27.40
2018-09-20T12:50:45.912Z,27.50
2018-09-20T12:53:13.901Z,27.50
2018-09-20T12:55:41.967Z,27.70
2018-09-20T12:58:10.503Z,27.80
2018-09-20T13:00:38.467Z,27.90
2018-09-20T13:03:06.478Z,27.90
2018-09-20T13:05:34.654Z,28.00
2018-09-20T13:08:02.666Z,28.10
2018-09-20T13:10:30.658Z,28.20
2018-09-20T13:12:58.545Z,28.30
2018-09-20T13:15:26.481Z,28.30
2018-09-20T13:17:54.466Z,28.30
2018-09-20T13:20:22.512Z,28.30
2018-09-20T13:22:50.466Z,28.50
2018-09-20T13:25:18.510Z,28.50
2018-09-20T13:27:46.497Z,28.70
2018-09-20T13:30:14.559Z,28.80
2018-09-20T13:32:42.574Z,28.90
2018-09-20T13:35:10.569Z,29.10
2018-09-20T13:37:38.554Z,29.40
2018-09-20T13:40:06.637Z,29.80
2018-09-20T13:42:34.633Z,30.20
2018-09-20T13:45:02.626Z,30.50
2018-09-20T13:47:30.587Z,30.90
2018-09-20T13:49:58.521Z,31.20
2018-09-20T13:52:26.498Z,31.70
2018-09-20T16:25:16.546Z,33.80
2018-09-20T16:27:44.568Z,33.70
2018-09-20T16:30:36.646Z,33.50
2018-09-20T16:33:19.024Z,33.40
2018-09-20T16:35:59.894Z,33.20
2018-09-20T16:38:43.701Z,33.10
2018-09-20T16:41:14.823Z,32.80
2018-09-20T16:43:42.849Z,32.60
2018-09-20T16:46:17.289Z,32.30
2018-09-20T16:48:45.322Z,32.10
2018-09-20T16:51:13.294Z,32.00
2018-09-20T19:09:25.484Z,21.00
2018-09-20T19:11:53.526Z,20.90
2018-09-20T19:14:21.536Z,20.70
2018-09-20T19:16:49.533Z,20.60
2018-09-20T19:19:17.466Z,20.50
2018-09-20T19:21:45.513Z,20.30
2018-09-20T19:24:13.495Z,20.20
2018-09-20T19:26:41.523Z,20.10
2018-09-20T19:29:09.526Z,20.10
2018-09-20T19:31:37.522Z,20.10
2018-09-20T19:34:05.637Z,20.00
2018-09-20T19:36:33.636Z,19.90
2018-09-20T19:39:01.592Z,19.80
2018-09-20T19:41:29.521Z,19.80
2018-09-20T19:43:57.562Z,19.80
2018-09-20T19:46:25.510Z,19.80
2018-09-20T19:48:53.483Z,19.60
2018-09-20T19:51:21.471Z,19.50
2018-09-20T19:53:49.493Z,19.50
2018-09-20T19:56:17.461Z,19.40
2018-09-20T19:58:45.401Z,19.40
2018-09-20T20:01:13.436Z,19.40
2018-09-20T20:03:41.796Z,19.40
2018-09-20T20:06:09.833Z,19.40
2018-09-20T20:08:37.787Z,19.40
2018-09-20T20:11:05.833Z,19.40
2018-09-20T20:13:33.797Z,19.40
2018-09-20T20:16:01.757Z,19.40
2018-09-20T20:18:29.762Z,19.30
2018-09-20T20:20:57.878Z,19.20
2018-09-20T20:23:25.819Z,19.20
2018-09-20T20:25:53.799Z,19.10
2018-09-20T20:28:21.782Z,19.10
2018-09-20T20:30:49.861Z,18.90
2018-09-20T20:33:17.748Z,18.80
2018-09-20T20:35:45.710Z,18.70
2018-09-20T20:38:13.724Z,18.70
2018-09-20T20:40:41.725Z,18.70
2018-09-20T20:43:09.730Z,18.70
2018-09-20T20:45:37.678Z,18.70
2018-09-20T20:48:05.745Z,18.50
2018-09-20T20:50:33.741Z,18.50
2018-09-20T20:53:01.689Z,18.50
2018-09-20T20:55:29.646Z,18.50
2018-09-20T20:57:57.602Z,18.40
2018-09-20T21:00:25.562Z,18.30
2018-09-20T21:02:53.628Z,18.30
2018-09-20T21:07:49.525Z,18.10
2018-09-20T21:10:17.498Z,18.00
2018-09-20T21:12:45.450Z,18.00
2018-09-20T21:15:13.391Z,18.00
2018-09-20T21:17:41.309Z,17.90
2018-09-20T21:20:09.358Z,17.90
2018-09-20T21:22:37.353Z,17.90
2018-09-20T21:25:05.392Z,17.80
2018-09-20T21:27:33.439Z,17.80
2018-09-20T21:30:01.513Z,17.80
2018-09-20T21:32:30.129Z,17.70
2018-09-20T21:34:58.067Z,17.60
2018-09-20T21:37:26.135Z,17.50
2018-09-20T21:39:54.170Z,17.60
2018-09-20T21:42:22.192Z,17.60
2018-09-20T21:44:50.634Z,17.50
2018-09-20T21:47:18.617Z,17.40
2018-09-20T21:49:46.597Z,17.40
2018-09-20T21:52:14.634Z,17.30
2018-09-20T21:54:43.200Z,17.30
2018-09-20T21:57:11.263Z,17.30
2018-09-20T21:59:39.274Z,17.30
2018-09-20T22:02:07.980Z,17.30
2018-09-20T22:04:36.017Z,17.20
2018-09-20T22:07:04.042Z,17.20
2018-09-20T22:09:32.046Z,17.20
2018-09-20T22:12:00.109Z,17.10
2018-09-20T22:14:28.118Z,17.10
2018-09-20T22:16:56.933Z,17.00
2018-09-20T22:19:24.915Z,16.90
2018-09-20T22:21:52.868Z,16.90
2018-09-20T22:24:20.907Z,16.80
2018-09-20T22:26:49.818Z,16.80
2018-09-20T22:29:18.287Z,16.70
2018-09-20T22:31:46.269Z,16.60
2018-09-20T22:34:14.432Z,16.60
2018-09-20T22:36:43.146Z,16.50
2018-09-20T22:39:11.685Z,16.40
2018-09-20T22:41:39.801Z,16.40
2018-09-20T22:44:07.965Z,16.40
2018-09-20T22:46:35.975Z,16.40
2018-09-20T22:49:03.969Z,16.40
2018-09-20T22:51:31.898Z,16.30
2018-09-20T22:53:59.829Z,16.30
2018-09-20T22:56:27.773Z,16.30
2018-09-20T22:58:55.683Z,16.20
2018-09-20T23:01:23.555Z,16.20
2018-09-20T23:03:51.480Z,16.20
2018-09-20T23:06:19.437Z,16.20
2018-09-20T23:08:47.293Z,16.10
2018-09-20T23:11:15.202Z,16.00
2018-09-20T23:13:43.092Z,16.00
2018-09-20T23:16:10.968Z,16.00
2018-09-20T23:18:38.897Z,16.10
2018-09-20T23:21:06.848Z,16.20
2018-09-20T23:23:34.805Z,16.10
2018-09-20T23:26:02.719Z,16.10
2018-09-20T23:28:30.624Z,16.10
2018-09-20T23:30:58.545Z,16.20
2018-09-20T23:33:26.412Z,16.20
2018-09-20T23:35:54.322Z,16.20
2018-09-20T23:38:22.201Z,16.10
2018-09-20T23:40:50.137Z,16.00
2018-09-20T23:43:18.063Z,16.00
2018-09-20T23:45:46.001Z,15.90
2018-09-20T23:48:13.903Z,15.80
2018-09-20T23:50:41.817Z,15.80
2018-09-20T23:53:09.729Z,15.80
2018-09-20T23:55:37.645Z,15.80
2018-09-20T23:58:05.681Z,15.80
